createdAt,value
2023-04-26T00:04:00.843Z,2.88
2023-04-26T00:08:04.324Z,2.53
2023-04-26T00:12:06.460Z,2.92
2023-04-26T00:16:08.331Z,3.13
2023-04-26T00:20:13.070Z,3.25
2023-04-26T00:24:14.818Z,3.33
2023-04-26T00:28:16.542Z,3.75
2023-04-26T00:32:18.459Z,3.40
2023-04-26T00:36:21.840Z,4.30
2023-04-26T00:40:23.600Z,3.72
2023-04-26T00:44:25.442Z,3.42
2023-04-26T00:48:28.062Z,3.25
2023-04-26T00:52:31.180Z,3.60
2023-04-26T00:56:33.437Z,3.55
2023-04-26T01:00:35.214Z,3.53
2023-04-26T01:04:37.565Z,3.90
2023-04-26T01:08:39.512Z,3.33
2023-04-26T01:12:41.691Z,3.42
2023-04-26T01:16:47.644Z,3.47
2023-04-26T01:20:49.834Z,3.42
2023-04-26T01:24:55.146Z,3.10
2023-04-26T01:28:56.895Z,3.15
2023-04-26T01:32:58.617Z,3.50
2023-04-26T01:37:01.665Z,3.08
2023-04-26T01:45:07.495Z,3.08
2023-04-26T01:49:32.805Z,3.17
2023-04-26T01:53:34.655Z,3.42
2023-04-26T01:57:36.508Z,3.40
2023-04-26T02:01:38.230Z,3.08
2023-04-26T02:05:39.917Z,2.70
2023-04-26T02:09:41.865Z,3.55
2023-04-26T02:13:43.767Z,3.47
2023-04-26T02:17:45.446Z,3.47
2023-04-26T02:21:56.304Z,3.63
2023-04-26T02:25:58.148Z,3.40
2023-04-26T02:29:59.964Z,3.15
2023-04-26T02:34:02.329Z,3.23
2023-04-26T02:38:04.366Z,3.60
2023-04-26T02:42:12.513Z,3.63
2023-04-26T02:46:17.136Z,3.42
2023-04-26T02:50:19.104Z,3.80
2023-04-26T02:54:21.117Z,3.80
2023-04-26T02:58:22.917Z,3.38
2023-04-26T03:02:25.031Z,3.92
2023-04-26T03:06:28.302Z,3.85
2023-04-26T03:10:30.318Z,4.20
2023-04-26T03:14:32.282Z,3.55
2023-04-26T03:18:33.971Z,3.88
2023-04-26T03:22:36.080Z,3.87
2023-04-26T03:26:38.612Z,5.10
2023-04-26T03:30:40.479Z,4.40
2023-04-26T03:34:42.227Z,4.55
2023-04-26T03:38:44.026Z,4.35
2023-04-26T03:46:50.949Z,4.00
2023-04-26T03:50:53.585Z,5.03
2023-04-26T03:54:55.298Z,4.78
2023-04-26T03:58:57.267Z,4.77
2023-04-26T04:02:59.898Z,4.97
2023-04-26T04:07:02.286Z,4.85
2023-04-26T04:11:04.006Z,4.72
2023-04-26T04:15:09.908Z,5.10
2023-04-26T04:19:13.721Z,5.35
2023-04-26T04:23:15.933Z,5.30
2023-04-26T04:27:17.882Z,5.47
2023-04-26T04:31:20.330Z,4.90
2023-04-26T04:35:29.369Z,4.60
2023-04-26T04:39:32.048Z,3.72
2023-04-26T04:43:35.216Z,4.35
2023-04-26T04:47:40.234Z,3.30
2023-04-26T04:51:44.189Z,3.35
2023-04-26T04:55:47.336Z,3.83
2023-04-26T04:59:51.465Z,4.05
2023-04-26T05:03:53.771Z,4.67
2023-04-26T05:07:55.927Z,3.35
2023-04-26T05:11:58.164Z,3.30
2023-04-26T05:16:00.917Z,4.55
2023-04-26T05:20:07.613Z,3.70
2023-04-26T05:24:10.170Z,3.65
2023-04-26T05:28:14.139Z,3.55
2023-04-26T05:32:50.967Z,3.15
2023-04-26T05:37:10.572Z,3.22
2023-04-26T05:41:13.168Z,3.88
2023-04-26T05:45:16.204Z,3.75
2023-04-26T05:49:18.176Z,3.63
2023-04-26T05:53:20.826Z,2.97
2023-04-26T05:57:28.547Z,3.78
2023-04-26T06:01:30.355Z,4.47
2023-04-26T06:05:33.049Z,4.20
2023-04-26T06:09:35.782Z,3.60
2023-04-26T06:13:38.261Z,4.80
2023-04-26T06:17:44.232Z,5.07
2023-04-26T06:21:49.128Z,4.85
2023-04-26T06:25:52.126Z,5.10
2023-04-26T06:29:56.112Z,4.07
2023-04-26T06:34:02.454Z,4.43
2023-04-26T06:38:04.194Z,4.35
2023-04-26T06:42:08.596Z,4.85
2023-04-26T06:46:36.192Z,6.63
2023-04-26T06:50:42.033Z,5.78
2023-04-26T06:54:55.933Z,5.05
2023-04-26T06:59:04.139Z,5.20
2023-04-26T07:03:07.195Z,5.20
2023-04-26T07:07:11.131Z,4.82
2023-04-26T07:11:16.872Z,5.40
2023-04-26T07:15:19.873Z,5.35
2023-04-26T07:19:22.114Z,5.50
2023-04-26T07:23:24.153Z,5.35
2023-04-26T07:27:27.397Z,5.00
2023-04-26T07:31:30.445Z,6.05
2023-04-26T07:35:33.760Z,5.80
2023-04-26T07:39:38.159Z,5.10
2023-04-26T07:43:42.085Z,5.32
2023-04-26T07:47:47.116Z,5.05
2023-04-26T07:51:51.304Z,4.30
2023-04-26T07:55:56.533Z,4.38
2023-04-26T08:00:00.482Z,3.63
2023-04-26T08:04:10.863Z,4.07
2023-04-26T08:08:14.077Z,4.35
2023-04-26T08:12:18.661Z,4.45
2023-04-26T08:16:23.126Z,4.35
2023-04-26T08:20:26.487Z,4.78
2023-04-26T08:24:29.825Z,4.03
2023-04-26T08:28:31.695Z,3.63
2023-04-26T08:32:36.132Z,3.83
2023-04-26T08:36:38.424Z,4.10
2023-04-26T08:40:44.151Z,4.05
2023-04-26T08:44:49.081Z,3.55
2023-04-26T08:49:06.087Z,3.35
2023-04-26T08:53:10.565Z,3.35
2023-04-26T08:57:16.097Z,3.63
2023-04-26T09:01:20.117Z,4.25
2023-04-26T09:05:27.268Z,2.95
2023-04-26T09:09:40.087Z,3.40
2023-04-26T09:13:43.387Z,2.80
2023-04-26T09:17:46.305Z,3.45
2023-04-26T09:21:50.094Z,3.13
2023-04-26T09:25:52.472Z,3.35
2023-04-26T09:29:59.967Z,3.38
2023-04-26T09:34:05.472Z,3.50
2023-04-26T09:38:19.515Z,3.15
2023-04-26T09:42:21.493Z,3.20
2023-04-26T09:46:26.906Z,2.63
2023-04-26T09:50:32.266Z,2.85
2023-04-26T09:54:47.456Z,2.22
2023-04-26T09:59:02.537Z,2.10
2023-04-26T10:03:06.202Z,2.15
2023-04-26T10:07:09.935Z,2.78
2023-04-26T10:11:14.138Z,3.20
2023-04-26T10:15:17.997Z,2.53
2023-04-26T10:19:24.529Z,2.38
2023-04-26T10:23:28.066Z,1.95
2023-04-26T10:27:43.509Z,2.22
2023-04-26T10:32:07.150Z,1.83
2023-04-26T10:36:15.952Z,2.00
2023-04-26T10:40:41.910Z,2.20
2023-04-26T10:44:45.840Z,1.88
2023-04-26T10:48:50.114Z,1.65
2023-04-26T10:53:04.816Z,2.10
2023-04-26T10:57:09.360Z,2.42
2023-04-26T11:01:20.151Z,2.37
2023-04-26T11:05:36.124Z,2.83
2023-04-26T11:09:41.609Z,2.33
2023-04-26T11:13:44.394Z,1.90
2023-04-26T11:17:47.432Z,2.53
2023-04-26T11:21:56.253Z,3.08
2023-04-26T11:26:06.090Z,2.08
2023-04-26T11:30:09.043Z,2.10
2023-04-26T11:34:12.081Z,2.70
2023-04-26T11:38:14.328Z,2.00
2023-04-26T11:42:16.848Z,1.90
2023-04-26T11:46:22.140Z,2.33
2023-04-26T11:50:26.965Z,2.67
2023-04-26T11:54:35.949Z,2.65
2023-04-26T11:58:38.107Z,2.30
2023-04-26T12:02:40.315Z,1.98
2023-04-26T12:06:48.278Z,2.35
2023-04-26T12:10:50.679Z,2.20
2023-04-26T12:14:54.077Z,2.72
2023-04-26T12:18:57.198Z,2.10
2023-04-26T12:22:59.783Z,2.20
2023-04-26T12:27:05.785Z,2.20
2023-04-26T12:31:09.130Z,2.65
2023-04-26T12:35:12.093Z,2.22
2023-04-26T12:39:15.921Z,2.15
2023-04-26T12:43:17.686Z,2.13
2023-04-26T12:47:22.652Z,2.30
2023-04-26T12:51:26.306Z,2.00
2023-04-26T12:55:31.920Z,3.65
2023-04-26T12:59:34.794Z,2.60
2023-04-26T13:03:36.881Z,2.00
2023-04-26T13:07:48.748Z,2.28
2023-04-26T13:11:50.390Z,2.85
2023-04-26T13:15:53.836Z,2.53
2023-04-26T13:19:56.895Z,2.40
2023-04-26T13:23:59.438Z,2.13
2023-04-26T13:28:01.984Z,2.10
2023-04-26T13:32:03.874Z,2.28
2023-04-26T13:36:05.920Z,2.30
2023-04-26T13:40:11.441Z,2.13
2023-04-26T13:44:14.430Z,2.40
2023-04-26T13:48:16.732Z,2.55
2023-04-26T13:52:18.967Z,2.47
2023-04-26T13:56:20.661Z,2.53
2023-04-26T14:00:23.109Z,2.30
2023-04-26T14:04:26.834Z,2.05
2023-04-26T14:08:29.347Z,1.73
2023-04-26T14:12:35.306Z,2.13
2023-04-26T14:16:37.196Z,2.30
2023-04-26T14:20:39.042Z,1.70
2023-04-26T14:24:40.996Z,1.87
2023-04-26T14:28:43.119Z,2.45
2023-04-26T14:32:45.870Z,1.85
2023-04-26T14:36:47.650Z,2.17
2023-04-26T14:40:49.590Z,2.23
2023-04-26T14:44:53.319Z,2.10
2023-04-26T14:48:56.126Z,2.80
2023-04-26T14:52:58.114Z,2.10
2023-04-26T14:57:00.529Z,1.92
2023-04-26T15:01:02.753Z,1.90
2023-04-26T15:05:09.121Z,2.40
2023-04-26T15:09:13.321Z,2.25
2023-04-26T15:13:15.264Z,2.20
2023-04-26T15:17:18.101Z,2.50
2023-04-26T15:21:19.918Z,2.30
2023-04-26T15:25:21.654Z,2.50
2023-04-26T15:29:23.446Z,1.83
2023-04-26T15:33:28.554Z,2.03
2023-04-26T15:37:30.683Z,1.95
2023-04-26T15:41:33.188Z,1.58
2023-04-26T15:45:35.978Z,2.05
2023-04-26T15:49:39.098Z,1.83
2023-04-26T15:53:43.858Z,1.38
2023-04-26T15:57:47.075Z,2.00
2023-04-26T16:01:48.881Z,2.10
2023-04-26T16:05:50.640Z,1.42
2023-04-26T16:09:52.717Z,1.83
2023-04-26T16:13:55.096Z,1.35
2023-04-26T16:18:00.228Z,2.03
2023-04-26T16:22:03.880Z,1.15
2023-04-26T16:30:09.915Z,1.65
2023-04-26T16:38:14.332Z,1.30
2023-04-26T16:42:17.106Z,1.58
2023-04-26T16:46:20.172Z,1.77
2023-04-26T16:50:22.169Z,1.60
2023-04-26T16:54:25.866Z,1.93
2023-04-26T16:58:27.607Z,1.52
2023-04-26T17:02:31.162Z,2.08
2023-04-26T17:06:33.374Z,1.73
2023-04-26T17:10:36.684Z,1.27
2023-04-26T17:14:38.318Z,1.80
2023-04-26T17:18:42.014Z,1.67
2023-04-26T17:22:46.099Z,1.35
2023-04-26T17:26:47.865Z,1.20
2023-04-26T17:30:49.681Z,1.50
2023-04-26T17:34:52.099Z,1.50
2023-04-26T17:38:53.918Z,1.85
2023-04-26T17:42:56.750Z,1.50
2023-04-26T17:46:59.324Z,1.23
2023-04-26T17:51:02.443Z,1.80
2023-04-26T17:55:08.138Z,1.83
2023-04-26T17:59:11.117Z,1.60
2023-04-26T18:03:13.837Z,3.00
2023-04-26T18:07:18.068Z,1.33
2023-04-26T18:11:24.190Z,1.63
2023-04-26T18:15:26.160Z,1.30
2023-04-26T18:19:29.462Z,1.42
2023-04-26T18:23:31.547Z,1.60
2023-04-26T18:27:33.565Z,1.50
2023-04-26T18:31:35.375Z,1.90
2023-04-26T18:39:41.084Z,1.60
2023-04-26T18:43:43.934Z,1.35
2023-04-26T18:47:46.505Z,1.50
2023-04-26T18:51:49.112Z,1.85
2023-04-26T18:55:53.888Z,1.67
2023-04-26T18:59:57.516Z,2.50
2023-04-26T19:04:00.306Z,1.50
2023-04-26T19:08:03.257Z,1.58
2023-04-26T19:12:07.072Z,1.80
2023-04-26T19:16:10.260Z,1.70
2023-04-26T19:20:14.872Z,1.50
2023-04-26T19:24:19.342Z,1.80
2023-04-26T19:28:21.096Z,1.92
2023-04-26T19:32:23.160Z,2.00
2023-04-26T19:36:26.085Z,2.13
2023-04-26T19:40:29.092Z,2.38
2023-04-26T19:48:35.083Z,2.10
2023-04-26T19:52:38.093Z,2.13
2023-04-26T19:56:41.087Z,2.22
2023-04-26T20:04:48.114Z,1.50
2023-04-26T20:08:51.082Z,2.05
2023-04-26T20:12:53.402Z,2.20
2023-04-26T20:16:55.316Z,1.77
2023-04-26T20:20:59.878Z,2.67
2023-04-26T20:25:01.747Z,3.40
2023-04-26T20:29:03.678Z,3.25
2023-04-26T20:37:08.519Z,2.75
2023-04-26T20:41:10.179Z,2.53
2023-04-26T20:45:12.502Z,2.55
2023-04-26T20:49:14.421Z,2.88
2023-04-26T20:53:16.772Z,2.90
2023-04-26T20:57:18.527Z,3.00
2023-04-26T21:01:20.294Z,3.10
2023-04-26T21:09:26.162Z,2.83
2023-04-26T21:13:29.949Z,3.70
2023-04-26T21:17:31.672Z,4.05
2023-04-26T21:21:33.438Z,3.50
2023-04-26T21:25:35.360Z,2.60
2023-04-26T21:29:37.146Z,2.45
2023-04-26T21:33:39.020Z,2.70
2023-04-26T21:37:40.873Z,2.75
2023-04-26T21:41:42.965Z,3.08
2023-04-26T21:45:44.685Z,2.83
2023-04-26T21:49:46.364Z,3.20
2023-04-26T21:53:48.143Z,3.42
2023-04-26T21:57:50.025Z,3.75
2023-04-26T22:01:51.829Z,3.20
2023-04-26T22:05:53.501Z,2.50
2023-04-26T22:09:55.236Z,2.17
2023-04-26T22:13:56.939Z,2.80
2023-04-26T22:17:58.677Z,2.88
2023-04-26T22:22:00.616Z,2.50
2023-04-26T22:26:02.575Z,2.65
2023-04-26T22:30:20.499Z,2.53
2023-04-26T22:34:25.385Z,2.38
2023-04-26T22:38:27.189Z,2.75
2023-04-26T22:42:28.983Z,3.03
2023-04-26T22:46:30.876Z,3.25
2023-04-26T22:50:32.583Z,3.25
2023-04-26T22:54:34.390Z,2.50
2023-04-26T22:58:36.213Z,2.30
2023-04-26T23:02:38.099Z,2.75
2023-04-26T23:06:39.760Z,2.42
2023-04-26T23:10:41.631Z,3.42
2023-04-26T23:14:43.335Z,2.80
2023-04-26T23:18:46.640Z,2.72
2023-04-26T23:22:48.305Z,1.92
2023-04-26T23:26:49.966Z,2.08
2023-04-26T23:30:51.690Z,2.47
2023-04-26T23:34:53.495Z,1.55
2023-04-26T23:38:55.146Z,2.40
2023-04-26T23:42:56.988Z,2.03
2023-04-26T23:46:58.638Z,2.05
2023-04-26T23:51:00.467Z,2.10
2023-04-26T23:55:02.116Z,2.00
2023-04-26T23:59:03.812Z,2.20
